sensor_id;sensor_type;location;lat;lon;timestamp;P1;durP1;ratioP1;P2;durP2;ratioP2
2191;SDS011;1102;49.718;11.902;2022-11-15T00:00:48;27.87;;;20.90;;
2191;SDS011;1102;49.718;11.902;2022-11-15T00:03:34;25.30;;;20.83;;
2191;SDS011;1102;49.718;11.902;2022-11-15T00:06:19;23.73;;;19.40;;
2191;SDS011;1102;49.718;11.902;2022-11-15T04:55:43;18.90;;;13.00;;
2191;SDS011;1102;49.718;11.902;2022-11-15T04:58:29;13.63;;;11.03;;
2191;SDS011;1102;49.718;11.902;2022-11-15T05:01:15;14.83;;;11.50;;
2191;SDS011;1102;49.718;11.902;2022-11-15T05:04:01;17.73;;;12.43;;
2191;SDS011;1102;49.718;11.902;2022-11-15T05:07:04;14.87;;;11.00;;
2191;SDS011;1102;49.718;11.902;2022-11-15T05:09:49;15.17;;;11.50;;
2191;SDS011;1102;49.718;11.902;2022-11-15T05:12:34;15.83;;;10.73;;
2191;SDS011;1102;49.718;11.902;2022-11-15T05:15:19;11.90;;;10.53;;
2191;SDS011;1102;49.718;11.902;2022-11-15T05:18:04;13.90;;;10.90;;
2191;SDS011;1102;49.718;11.902;2022-11-15T05:20:50;15.10;;;12.27;;
2191;SDS011;1102;49.718;11.902;2022-11-15T05:23:35;14.00;;;12.03;;
2191;SDS011;1102;49.718;11.902;2022-11-15T05:26:20;15.70;;;11.83;;
2191;SDS011;1102;49.718;11.902;2022-11-15T05:29:05;13.80;;;9.93;;
2191;SDS011;1102;49.718;11.902;2022-11-15T05:31:50;15.43;;;11.40;;
2191;SDS011;1102;49.718;11.902;2022-11-15T05:34:36;13.07;;;11.47;;
2191;SDS011;1102;49.718;11.902;2022-11-15T05:37:21;14.10;;;11.90;;
2191;SDS011;1102;49.718;11.902;2022-11-15T05:40:07;12.53;;;10.63;;
2191;SDS011;1102;49.718;11.902;2022-11-15T05:42:52;19.13;;;11.23;;
2191;SDS011;1102;49.718;11.902;2022-11-15T05:45:38;12.80;;;11.60;;
2191;SDS011;1102;49.718;11.902;2022-11-15T05:48:23;16.90;;;12.67;;
2191;SDS011;1102;49.718;11.902;2022-11-15T05:51:08;13.90;;;10.93;;
2191;SDS011;1102;49.718;11.902;2022-11-15T05:53:54;24.07;;;18.17;;
2191;SDS011;1102;49.718;11.902;2022-11-15T05:56:41;38.63;;;24.30;;
2191;SDS011;1102;49.718;11.902;2022-11-15T05:59:28;37.53;;;25.53;;
2191;SDS011;1102;49.718;11.902;2022-11-15T06:02:15;27.47;;;20.60;;
2191;SDS011;1102;49.718;11.902;2022-11-15T06:05:00;31.70;;;18.83;;
2191;SDS011;1102;49.718;11.902;2022-11-15T06:07:45;26.57;;;19.60;;
2191;SDS011;1102;49.718;11.902;2022-11-15T06:10:31;21.50;;;14.10;;
2191;SDS011;1102;49.718;11.902;2022-11-15T06:13:17;17.67;;;15.33;;
2191;SDS011;1102;49.718;11.902;2022-11-15T06:16:03;21.10;;;15.00;;
2191;SDS011;1102;49.718;11.902;2022-11-15T06:18:48;12.80;;;10.30;;
2191;SDS011;1102;49.718;11.902;2022-11-15T06:21:33;15.77;;;11.10;;
2191;SDS011;1102;49.718;11.902;2022-11-15T06:24:18;16.77;;;12.87;;
2191;SDS011;1102;49.718;11.902;2022-11-15T06:27:04;15.27;;;11.20;;
2191;SDS011;1102;49.718;11.902;2022-11-15T06:29:49;19.27;;;11.70;;
2191;SDS011;1102;49.718;11.902;2022-11-15T06:32:34;15.83;;;12.20;;
2191;SDS011;1102;49.718;11.902;2022-11-15T06:35:19;16.87;;;12.93;;
2191;SDS011;1102;49.718;11.902;2022-11-15T06:38:06;18.73;;;13.40;;
2191;SDS011;1102;49.718;11.902;2022-11-15T06:40:53;16.93;;;13.33;;
2191;SDS011;1102;49.718;11.902;2022-11-15T06:43:38;17.97;;;13.50;;
2191;SDS011;1102;49.718;11.902;2022-11-15T06:46:23;17.70;;;13.50;;
2191;SDS011;1102;49.718;11.902;2022-11-15T06:49:09;13.90;;;11.50;;
2191;SDS011;1102;49.718;11.902;2022-11-15T06:51:54;15.83;;;11.67;;
2191;SDS011;1102;49.718;11.902;2022-11-15T06:54:39;18.20;;;13.03;;
2191;SDS011;1102;49.718;11.902;2022-11-15T06:57:24;13.97;;;12.37;;
2191;SDS011;1102;49.718;11.902;2022-11-15T07:00:10;15.43;;;12.50;;
2191;SDS011;1102;49.718;11.902;2022-11-15T07:02:56;16.70;;;12.47;;
2191;SDS011;1102;49.718;11.902;2022-11-15T07:05:52;14.33;;;11.77;;
2191;SDS011;1102;49.718;11.902;2022-11-15T07:08:39;12.63;;;10.87;;
2191;SDS011;1102;49.718;11.902;2022-11-15T07:11:26;19.47;;;12.23;;
2191;SDS011;1102;49.718;11.902;2022-11-15T07:14:11;16.53;;;12.73;;
2191;SDS011;1102;49.718;11.902;2022-11-15T07:16:56;23.13;;;13.40;;
2191;SDS011;1102;49.718;11.902;2022-11-15T07:19:42;11.93;;;10.33;;
2191;SDS011;1102;49.718;11.902;2022-11-15T07:22:27;15.80;;;12.10;;
2191;SDS011;1102;49.718;11.902;2022-11-15T07:25:12;20.47;;;16.37;;
2191;SDS011;1102;49.718;11.902;2022-11-15T07:27:58;33.53;;;23.60;;
2191;SDS011;1102;49.718;11.902;2022-11-15T07:30:44;107.57;;;65.27;;
2191;SDS011;1102;49.718;11.902;2022-11-15T07:33:32;73.87;;;47.83;;
2191;SDS011;1102;49.718;11.902;2022-11-15T07:36:36;60.03;;;33.63;;
2191;SDS011;1102;49.718;11.902;2022-11-15T07:39:21;38.87;;;26.43;;
2191;SDS011;1102;49.718;11.902;2022-11-15T07:42:07;29.80;;;19.30;;
2191;SDS011;1102;49.718;11.902;2022-11-15T07:45:10;24.17;;;17.67;;
2191;SDS011;1102;49.718;11.902;2022-11-15T07:47:56;30.87;;;20.07;;
2191;SDS011;1102;49.718;11.902;2022-11-15T07:50:41;58.77;;;34.50;;
2191;SDS011;1102;49.718;11.902;2022-11-15T07:53:27;63.60;;;39.53;;
2191;SDS011;1102;49.718;11.902;2022-11-15T07:56:13;64.13;;;43.53;;
2191;SDS011;1102;49.718;11.902;2022-11-15T07:58:58;64.50;;;42.30;;
2191;SDS011;1102;49.718;11.902;2022-11-15T08:01:43;62.30;;;40.47;;
2191;SDS011;1102;49.718;11.902;2022-11-15T08:04:28;45.30;;;29.73;;
2191;SDS011;1102;49.718;11.902;2022-11-15T08:07:14;32.93;;;23.17;;
2191;SDS011;1102;49.718;11.902;2022-11-15T08:09:59;32.33;;;22.40;;
2191;SDS011;1102;49.718;11.902;2022-11-15T08:12:45;27.80;;;20.13;;
2191;SDS011;1102;49.718;11.902;2022-11-15T08:15:31;28.67;;;18.07;;
2191;SDS011;1102;49.718;11.902;2022-11-15T08:18:17;23.67;;;17.03;;
2191;SDS011;1102;49.718;11.902;2022-11-15T08:21:02;17.97;;;13.40;;
2191;SDS011;1102;49.718;11.902;2022-11-15T08:23:48;22.27;;;15.27;;
2191;SDS011;1102;49.718;11.902;2022-11-15T08:26:33;25.77;;;16.90;;
2191;SDS011;1102;49.718;11.902;2022-11-15T08:29:19;22.53;;;16.70;;
2191;SDS011;1102;49.718;11.902;2022-11-15T08:32:05;22.83;;;13.10;;
2191;SDS011;1102;49.718;11.902;2022-11-15T08:34:50;18.30;;;14.27;;
2191;SDS011;1102;49.718;11.902;2022-11-15T08:37:35;19.13;;;12.90;;
2191;SDS011;1102;49.718;11.902;2022-11-15T08:40:21;17.27;;;13.70;;
2191;SDS011;1102;49.718;11.902;2022-11-15T08:43:08;19.90;;;11.93;;
2191;SDS011;1102;49.718;11.902;2022-11-15T08:45:55;20.93;;;12.97;;
2191;SDS011;1102;49.718;11.902;2022-11-15T08:48:41;16.43;;;12.80;;
2191;SDS011;1102;49.718;11.902;2022-11-15T08:51:26;17.23;;;12.00;;
2191;SDS011;1102;49.718;11.902;2022-11-15T08:54:12;13.60;;;12.07;;
2191;SDS011;1102;49.718;11.902;2022-11-15T08:56:57;17.80;;;12.57;;
2191;SDS011;1102;49.718;11.902;2022-11-15T08:59:42;15.00;;;13.00;;
2191;SDS011;1102;49.718;11.902;2022-11-15T09:02:28;18.60;;;13.83;;
2191;SDS011;1102;49.718;11.902;2022-11-15T09:05:13;17.83;;;12.40;;
2191;SDS011;1102;49.718;11.902;2022-11-15T09:08:00;15.13;;;13.23;;
2191;SDS011;1102;49.718;11.902;2022-11-15T09:10:57;14.87;;;12.63;;
2191;SDS011;1102;49.718;11.902;2022-11-15T09:13:42;14.73;;;12.83;;
2191;SDS011;1102;49.718;11.902;2022-11-15T09:16:28;20.57;;;14.27;;
2191;SDS011;1102;49.718;11.902;2022-11-15T09:19:15;23.67;;;17.03;;
2191;SDS011;1102;49.718;11.902;2022-11-15T09:22:00;20.00;;;12.07;;
2191;SDS011;1102;49.718;11.902;2022-11-15T09:24:45;16.50;;;12.03;;
2191;SDS011;1102;49.718;11.902;2022-11-15T09:27:31;15.07;;;11.80;;
2191;SDS011;1102;49.718;11.902;2022-11-15T09:30:16;13.50;;;11.90;;
2191;SDS011;1102;49.718;11.902;2022-11-15T09:33:09;13.57;;;10.90;;
2191;SDS011;1102;49.718;11.902;2022-11-15T09:36:05;14.10;;;12.63;;
2191;SDS011;1102;49.718;11.902;2022-11-15T09:38:52;17.33;;;14.27;;
2191;SDS011;1102;49.718;11.902;2022-11-15T09:41:41;17.20;;;12.67;;
2191;SDS011;1102;49.718;11.902;2022-11-15T09:44:35;17.33;;;13.30;;
2191;SDS011;1102;49.718;11.902;2022-11-15T09:53:14;16.00;;;11.40;;
2191;SDS011;1102;49.718;11.902;2022-11-15T09:56:19;16.20;;;10.30;;
2191;SDS011;1102;49.718;11.902;2022-11-15T09:58:54;13.80;;;10.67;;
2191;SDS011;1102;49.718;11.902;2022-11-15T10:04:22;16.30;;;11.37;;
2191;SDS011;1102;49.718;11.902;2022-11-15T10:06:52;12.30;;;10.37;;
2191;SDS011;1102;49.718;11.902;2022-11-15T10:09:26;13.27;;;10.70;;
2191;SDS011;1102;49.718;11.902;2022-11-15T10:12:09;12.67;;;9.73;;
2191;SDS011;1102;49.718;11.902;2022-11-15T10:14:39;14.20;;;11.47;;
2191;SDS011;1102;49.718;11.902;2022-11-15T10:22:56;12.63;;;9.90;;
2191;SDS011;1102;49.718;11.902;2022-11-15T10:25:31;13.00;;;10.30;;
2191;SDS011;1102;49.718;11.902;2022-11-15T10:28:00;11.30;;;9.37;;
2191;SDS011;1102;49.718;11.902;2022-11-15T10:30:38;12.33;;;9.60;;
2191;SDS011;1102;49.718;11.902;2022-11-15T10:36:35;12.53;;;8.33;;
2191;SDS011;1102;49.718;11.902;2022-11-15T10:38:55;11.30;;;9.03;;
2191;SDS011;1102;49.718;11.902;2022-11-15T10:49:26;12.10;;;10.07;;
2191;SDS011;1102;49.718;11.902;2022-11-15T10:51:58;11.30;;;9.60;;
2191;SDS011;1102;49.718;11.902;2022-11-15T10:54:28;11.23;;;9.90;;
2191;SDS011;1102;49.718;11.902;2022-11-15T10:57:36;12.70;;;8.93;;
2191;SDS011;1102;49.718;11.902;2022-11-15T11:02:46;9.20;;;8.00;;
2191;SDS011;1102;49.718;11.902;2022-11-15T11:10:37;9.50;;;8.50;;
2191;SDS011;1102;49.718;11.902;2022-11-15T11:13:26;13.87;;;8.20;;
2191;SDS011;1102;49.718;11.902;2022-11-15T11:24:14;10.10;;;8.70;;
2191;SDS011;1102;49.718;11.902;2022-11-15T11:32:28;10.97;;;8.30;;
2191;SDS011;1102;49.718;11.902;2022-11-15T11:37:52;9.20;;;8.30;;
2191;SDS011;1102;49.718;11.902;2022-11-15T11:48:58;9.07;;;8.10;;
2191;SDS011;1102;49.718;11.902;2022-11-15T11:51:36;12.63;;;7.33;;
2191;SDS011;1102;49.718;11.902;2022-11-15T11:56:52;8.57;;;7.33;;
2191;SDS011;1102;49.718;11.902;2022-11-15T12:02:20;9.97;;;7.60;;
2191;SDS011;1102;49.718;11.902;2022-11-15T12:04:54;7.33;;;6.63;;
2191;SDS011;1102;49.718;11.902;2022-11-15T12:07:31;9.20;;;5.57;;
2191;SDS011;1102;49.718;11.902;2022-11-15T12:10:22;7.67;;;6.40;;
2191;SDS011;1102;49.718;11.902;2022-11-15T12:12:58;25.10;;;20.73;;
2191;SDS011;1102;49.718;11.902;2022-11-15T12:15:51;8.03;;;7.23;;
2191;SDS011;1102;49.718;11.902;2022-11-15T12:18:24;9.00;;;7.57;;
2191;SDS011;1102;49.718;11.902;2022-11-15T12:20:53;6.07;;;5.50;;
2191;SDS011;1102;49.718;11.902;2022-11-15T12:23:25;7.33;;;6.33;;
2191;SDS011;1102;49.718;11.902;2022-11-15T12:25:57;7.77;;;6.60;;
2191;SDS011;1102;49.718;11.902;2022-11-15T12:34:01;6.27;;;5.67;;
2191;SDS011;1102;49.718;11.902;2022-11-15T12:36:37;6.43;;;5.50;;
2191;SDS011;1102;49.718;11.902;2022-11-15T12:39:07;7.50;;;5.77;;
2191;SDS011;1102;49.718;11.902;2022-11-15T12:41:39;6.87;;;5.20;;
2191;SDS011;1102;49.718;11.902;2022-11-15T12:44:56;5.57;;;5.07;;
2191;SDS011;1102;49.718;11.902;2022-11-15T12:47:02;8.57;;;5.20;;
2191;SDS011;1102;49.718;11.902;2022-11-15T12:59:52;6.90;;;5.40;;
2191;SDS011;1102;49.718;11.902;2022-11-15T13:04:49;6.60;;;5.87;;
2191;SDS011;1102;49.718;11.902;2022-11-15T13:17:51;4.80;;;4.30;;
2191;SDS011;1102;49.718;11.902;2022-11-15T13:20:29;5.30;;;4.60;;
2191;SDS011;1102;49.718;11.902;2022-11-15T13:23:15;5.23;;;4.73;;
2191;SDS011;1102;49.718;11.902;2022-11-15T13:33:47;5.40;;;4.40;;
2191;SDS011;1102;49.718;11.902;2022-11-15T13:38:54;6.03;;;4.50;;
2191;SDS011;1102;49.718;11.902;2022-11-15T13:41:35;5.77;;;5.30;;
2191;SDS011;1102;49.718;11.902;2022-11-15T13:44:18;8.63;;;5.43;;
2191;SDS011;1102;49.718;11.902;2022-11-15T13:47:09;5.80;;;5.00;;
2191;SDS011;1102;49.718;11.902;2022-11-15T13:49:40;6.87;;;5.20;;
2191;SDS011;1102;49.718;11.902;2022-11-15T13:52:11;5.83;;;5.23;;
2191;SDS011;1102;49.718;11.902;2022-11-15T13:54:43;5.43;;;5.03;;
2191;SDS011;1102;49.718;11.902;2022-11-15T13:57:20;4.80;;;4.40;;
2191;SDS011;1102;49.718;11.902;2022-11-15T13:59:51;5.83;;;5.00;;
2191;SDS011;1102;49.718;11.902;2022-11-15T14:02:21;5.37;;;4.87;;
2191;SDS011;1102;49.718;11.902;2022-11-15T14:07:52;4.80;;;4.40;;
2191;SDS011;1102;49.718;11.902;2022-11-15T14:13:04;5.13;;;4.63;;
2191;SDS011;1102;49.718;11.902;2022-11-15T14:18:45;5.30;;;4.80;;
2191;SDS011;1102;49.718;11.902;2022-11-15T14:21:17;7.10;;;6.37;;
2191;SDS011;1102;49.718;11.902;2022-11-15T14:23:45;7.07;;;5.70;;
2191;SDS011;1102;49.718;11.902;2022-11-15T14:26:28;7.10;;;6.50;;
2191;SDS011;1102;49.718;11.902;2022-11-15T14:28:57;8.90;;;6.40;;
2191;SDS011;1102;49.718;11.902;2022-11-15T14:31:54;7.23;;;6.47;;
2191;SDS011;1102;49.718;11.902;2022-11-15T14:34:39;7.00;;;6.30;;
2191;SDS011;1102;49.718;11.902;2022-11-15T14:37:19;7.03;;;6.33;;
2191;SDS011;1102;49.718;11.902;2022-11-15T14:39:51;10.40;;;5.90;;
2191;SDS011;1102;49.718;11.902;2022-11-15T14:42:18;6.40;;;5.30;;
2191;SDS011;1102;49.718;11.902;2022-11-15T14:44:46;7.00;;;5.63;;
2191;SDS011;1102;49.718;11.902;2022-11-15T14:47:13;9.40;;;6.17;;
2191;SDS011;1102;49.718;11.902;2022-11-15T14:49:40;9.43;;;7.53;;
2191;SDS011;1102;49.718;11.902;2022-11-15T14:52:21;8.40;;;6.83;;
2191;SDS011;1102;49.718;11.902;2022-11-15T14:54:56;7.83;;;6.20;;
2191;SDS011;1102;49.718;11.902;2022-11-15T14:57:24;7.20;;;5.80;;
2191;SDS011;1102;49.718;11.902;2022-11-15T14:59:51;6.93;;;5.67;;
2191;SDS011;1102;49.718;11.902;2022-11-15T15:02:21;8.37;;;5.63;;
2191;SDS011;1102;49.718;11.902;2022-11-15T15:04:50;10.60;;;6.80;;
2191;SDS011;1102;49.718;11.902;2022-11-15T15:07:17;8.23;;;6.57;;
2191;SDS011;1102;49.718;11.902;2022-11-15T15:09:45;6.17;;;5.57;;
2191;SDS011;1102;49.718;11.902;2022-11-15T15:12:19;7.10;;;6.47;;
2191;SDS011;1102;49.718;11.902;2022-11-15T15:14:48;6.37;;;5.87;;
2191;SDS011;1102;49.718;11.902;2022-11-15T15:17:16;8.17;;;6.40;;
2191;SDS011;1102;49.718;11.902;2022-11-15T15:19:43;12.37;;;10.20;;
2191;SDS011;1102;49.718;11.902;2022-11-15T15:22:17;13.40;;;9.50;;
2191;SDS011;1102;49.718;11.902;2022-11-15T15:24:45;8.17;;;6.87;;
2191;SDS011;1102;49.718;11.902;2022-11-15T15:27:12;7.80;;;6.27;;
2191;SDS011;1102;49.718;11.902;2022-11-15T15:29:40;8.30;;;6.93;;
2191;SDS011;1102;49.718;11.902;2022-11-15T15:32:07;9.80;;;8.80;;
2191;SDS011;1102;49.718;11.902;2022-11-15T15:34:34;10.73;;;8.80;;
2191;SDS011;1102;49.718;11.902;2022-11-15T15:39:49;11.37;;;8.57;;
2191;SDS011;1102;49.718;11.902;2022-11-15T15:42:17;9.80;;;8.20;;
2191;SDS011;1102;49.718;11.902;2022-11-15T15:44:45;8.90;;;7.67;;
2191;SDS011;1102;49.718;11.902;2022-11-15T15:47:12;13.27;;;9.33;;
2191;SDS011;1102;49.718;11.902;2022-11-15T15:49:42;13.80;;;11.20;;
2191;SDS011;1102;49.718;11.902;2022-11-15T15:52:08;15.20;;;11.10;;
2191;SDS011;1102;49.718;11.902;2022-11-15T15:54:35;12.20;;;9.90;;
2191;SDS011;1102;49.718;11.902;2022-11-15T15:57:02;12.03;;;10.83;;
2191;SDS011;1102;49.718;11.902;2022-11-15T15:59:28;12.03;;;9.53;;
2191;SDS011;1102;49.718;11.902;2022-11-15T16:01:55;19.70;;;12.77;;
2191;SDS011;1102;49.718;11.902;2022-11-15T16:04:22;21.43;;;18.27;;
2191;SDS011;1102;49.718;11.902;2022-11-15T16:06:49;21.20;;;16.93;;
2191;SDS011;1102;49.718;11.902;2022-11-15T16:09:19;27.60;;;17.20;;
2191;SDS011;1102;49.718;11.902;2022-11-15T16:12:05;19.67;;;15.37;;
2191;SDS011;1102;49.718;11.902;2022-11-15T16:14:32;16.47;;;14.20;;
2191;SDS011;1102;49.718;11.902;2022-11-15T16:16:59;20.03;;;17.30;;
2191;SDS011;1102;49.718;11.902;2022-11-15T16:19:26;25.13;;;19.20;;
2191;SDS011;1102;49.718;11.902;2022-11-15T16:21:52;36.60;;;29.60;;
2191;SDS011;1102;49.718;11.902;2022-11-15T16:24:19;34.50;;;25.23;;
2191;SDS011;1102;49.718;11.902;2022-11-15T16:26:47;33.23;;;26.83;;
2191;SDS011;1102;49.718;11.902;2022-11-15T16:29:14;37.37;;;28.70;;
2191;SDS011;1102;49.718;11.902;2022-11-15T16:31:41;48.23;;;34.47;;
2191;SDS011;1102;49.718;11.902;2022-11-15T16:34:08;41.43;;;32.00;;
2191;SDS011;1102;49.718;11.902;2022-11-15T16:36:35;37.10;;;29.50;;
2191;SDS011;1102;49.718;11.902;2022-11-15T16:39:02;31.47;;;27.70;;
2191;SDS011;1102;49.718;11.902;2022-11-15T16:41:30;37.83;;;28.53;;
2191;SDS011;1102;49.718;11.902;2022-11-15T16:43:57;35.47;;;27.07;;
2191;SDS011;1102;49.718;11.902;2022-11-15T16:46:25;31.83;;;26.07;;
2191;SDS011;1102;49.718;11.902;2022-11-15T16:48:53;34.20;;;25.43;;
2191;SDS011;1102;49.718;11.902;2022-11-15T16:51:20;31.40;;;25.83;;
2191;SDS011;1102;49.718;11.902;2022-11-15T16:53:48;33.03;;;25.27;;
2191;SDS011;1102;49.718;11.902;2022-11-15T16:58:44;29.10;;;24.93;;
2191;SDS011;1102;49.718;11.902;2022-11-15T17:01:22;30.63;;;23.27;;
2191;SDS011;1102;49.718;11.902;2022-11-15T17:04:00;31.10;;;23.50;;
2191;SDS011;1102;49.718;11.902;2022-11-15T17:06:38;27.00;;;24.10;;
2191;SDS011;1102;49.718;11.902;2022-11-15T17:09:09;26.27;;;22.10;;
2191;SDS011;1102;49.718;11.902;2022-11-15T17:11:41;26.37;;;21.30;;
2191;SDS011;1102;49.718;11.902;2022-11-15T17:14:08;31.10;;;21.60;;
2191;SDS011;1102;49.718;11.902;2022-11-15T17:16:36;25.23;;;20.17;;
2191;SDS011;1102;49.718;11.902;2022-11-15T17:19:11;27.73;;;21.40;;
2191;SDS011;1102;49.718;11.902;2022-11-15T17:21:42;26.90;;;20.20;;
2191;SDS011;1102;49.718;11.902;2022-11-15T17:24:09;21.80;;;18.90;;
2191;SDS011;1102;49.718;11.902;2022-11-15T17:26:36;25.27;;;19.90;;
2191;SDS011;1102;49.718;11.902;2022-11-15T17:29:06;25.47;;;21.00;;
2191;SDS011;1102;49.718;11.902;2022-11-15T17:31:36;24.10;;;19.07;;
2191;SDS011;1102;49.718;11.902;2022-11-15T17:34:04;27.80;;;20.40;;
2191;SDS011;1102;49.718;11.902;2022-11-15T17:36:31;29.53;;;20.10;;
2191;SDS011;1102;49.718;11.902;2022-11-15T17:38:58;27.37;;;22.10;;
2191;SDS011;1102;49.718;11.902;2022-11-15T17:41:26;28.23;;;19.60;;
2191;SDS011;1102;49.718;11.902;2022-11-15T17:43:57;27.07;;;21.00;;
2191;SDS011;1102;49.718;11.902;2022-11-15T17:46:25;28.37;;;21.90;;
2191;SDS011;1102;49.718;11.902;2022-11-15T17:48:53;24.03;;;18.17;;
2191;SDS011;1102;49.718;11.902;2022-11-15T17:51:21;23.80;;;17.70;;
2191;SDS011;1102;49.718;11.902;2022-11-15T17:53:49;16.57;;;14.60;;
2191;SDS011;1102;49.718;11.902;2022-11-15T17:56:17;19.67;;;15.90;;
2191;SDS011;1102;49.718;11.902;2022-11-15T17:58:52;14.43;;;12.73;;
2191;SDS011;1102;49.718;11.902;2022-11-15T18:01:21;18.03;;;13.73;;
2191;SDS011;1102;49.718;11.902;2022-11-15T18:03:59;10.70;;;9.50;;
2191;SDS011;1102;49.718;11.902;2022-11-15T18:06:28;12.33;;;11.10;;
2191;SDS011;1102;49.718;11.902;2022-11-15T18:08:58;14.77;;;10.80;;
2191;SDS011;1102;49.718;11.902;2022-11-15T18:11:26;9.20;;;7.70;;
2191;SDS011;1102;49.718;11.902;2022-11-15T18:14:07;7.87;;;6.47;;
2191;SDS011;1102;49.718;11.902;2022-11-15T18:16:37;9.20;;;7.17;;
2191;SDS011;1102;49.718;11.902;2022-11-15T18:19:05;8.67;;;7.77;;
2191;SDS011;1102;49.718;11.902;2022-11-15T18:21:39;9.50;;;8.50;;
2191;SDS011;1102;49.718;11.902;2022-11-15T18:27:00;7.17;;;6.40;;
2191;SDS011;1102;49.718;11.902;2022-11-15T18:29:29;8.30;;;7.50;;
2191;SDS011;1102;49.718;11.902;2022-11-15T18:31:56;7.27;;;6.07;;
2191;SDS011;1102;49.718;11.902;2022-11-15T18:34:25;7.80;;;6.83;;
2191;SDS011;1102;49.718;11.902;2022-11-15T18:36:57;9.70;;;6.90;;
2191;SDS011;1102;49.718;11.902;2022-11-15T18:39:24;51.17;;;8.97;;
2191;SDS011;1102;49.718;11.902;2022-11-15T18:41:51;10.80;;;8.50;;
2191;SDS011;1102;49.718;11.902;2022-11-15T18:44:17;9.10;;;8.30;;
2191;SDS011;1102;49.718;11.902;2022-11-15T18:46:44;9.70;;;7.80;;
2191;SDS011;1102;49.718;11.902;2022-11-15T18:49:11;7.37;;;6.67;;
2191;SDS011;1102;49.718;11.902;2022-11-15T18:51:39;10.83;;;8.47;;
2191;SDS011;1102;49.718;11.902;2022-11-15T18:54:10;8.03;;;7.23;;
2191;SDS011;1102;49.718;11.902;2022-11-15T18:56:38;7.73;;;6.20;;
2191;SDS011;1102;49.718;11.902;2022-11-15T18:59:05;15.30;;;8.33;;
2191;SDS011;1102;49.718;11.902;2022-11-15T19:01:40;13.77;;;9.33;;
2191;SDS011;1102;49.718;11.902;2022-11-15T19:04:12;11.33;;;9.30;;
2191;SDS011;1102;49.718;11.902;2022-11-15T19:06:44;9.80;;;8.80;;
2191;SDS011;1102;49.718;11.902;2022-11-15T19:09:13;13.93;;;12.07;;
2191;SDS011;1102;49.718;11.902;2022-11-15T19:11:42;12.73;;;9.30;;
2191;SDS011;1102;49.718;11.902;2022-11-15T19:14:10;9.10;;;8.10;;
2191;SDS011;1102;49.718;11.902;2022-11-15T19:16:45;9.43;;;7.27;;
2191;SDS011;1102;49.718;11.902;2022-11-15T19:19:18;9.47;;;8.43;;
2191;SDS011;1102;49.718;11.902;2022-11-15T19:21:50;9.90;;;7.47;;
2191;SDS011;1102;49.718;11.902;2022-11-15T19:24:17;7.67;;;6.97;;
2191;SDS011;1102;49.718;11.902;2022-11-15T19:26:44;8.53;;;7.73;;
2191;SDS011;1102;49.718;11.902;2022-11-15T19:29:11;8.97;;;8.07;;
2191;SDS011;1102;49.718;11.902;2022-11-15T19:31:42;9.90;;;8.47;;
2191;SDS011;1102;49.718;11.902;2022-11-15T19:34:09;9.23;;;8.33;;
2191;SDS011;1102;49.718;11.902;2022-11-15T19:36:37;10.30;;;8.07;;
2191;SDS011;1102;49.718;11.902;2022-11-15T19:39:06;8.10;;;7.30;;
2191;SDS011;1102;49.718;11.902;2022-11-15T19:41:36;9.33;;;8.23;;
2191;SDS011;1102;49.718;11.902;2022-11-15T19:44:04;10.47;;;9.10;;
2191;SDS011;1102;49.718;11.902;2022-11-15T19:46:31;10.80;;;9.90;;
2191;SDS011;1102;49.718;11.902;2022-11-15T19:48:58;8.77;;;7.87;;
2191;SDS011;1102;49.718;11.902;2022-11-15T19:51:26;11.77;;;8.50;;
2191;SDS011;1102;49.718;11.902;2022-11-15T19:53:56;11.70;;;8.10;;
2191;SDS011;1102;49.718;11.902;2022-11-15T19:56:24;9.27;;;7.40;;
2191;SDS011;1102;49.718;11.902;2022-11-15T19:58:52;12.03;;;9.33;;
2191;SDS011;1102;49.718;11.902;2022-11-15T20:03:51;9.60;;;8.27;;
2191;SDS011;1102;49.718;11.902;2022-11-15T20:06:21;13.70;;;10.27;;
2191;SDS011;1102;49.718;11.902;2022-11-15T20:08:49;8.63;;;7.80;;
2191;SDS011;1102;49.718;11.902;2022-11-15T20:11:16;11.50;;;9.47;;
2191;SDS011;1102;49.718;11.902;2022-11-15T20:13:43;8.73;;;7.83;;
2191;SDS011;1102;49.718;11.902;2022-11-15T20:16:20;11.80;;;9.07;;
2191;SDS011;1102;49.718;11.902;2022-11-15T20:18:48;14.07;;;12.57;;
2191;SDS011;1102;49.718;11.902;2022-11-15T20:21:16;9.73;;;8.43;;
2191;SDS011;1102;49.718;11.902;2022-11-15T20:23:43;10.70;;;9.60;;
2191;SDS011;1102;49.718;11.902;2022-11-15T20:26:10;11.10;;;9.83;;
2191;SDS011;1102;49.718;11.902;2022-11-15T20:28:38;10.73;;;9.07;;
2191;SDS011;1102;49.718;11.902;2022-11-15T20:31:06;10.00;;;8.97;;
2191;SDS011;1102;49.718;11.902;2022-11-15T20:33:33;9.10;;;8.13;;
2191;SDS011;1102;49.718;11.902;2022-11-15T20:36:04;9.00;;;8.03;;
2191;SDS011;1102;49.718;11.902;2022-11-15T20:38:32;9.37;;;8.17;;
2191;SDS011;1102;49.718;11.902;2022-11-15T20:41:00;9.30;;;8.40;;
2191;SDS011;1102;49.718;11.902;2022-11-15T20:43:26;12.00;;;8.30;;
2191;SDS011;1102;49.718;11.902;2022-11-15T20:45:53;11.67;;;9.47;;
2191;SDS011;1102;49.718;11.902;2022-11-15T20:48:20;11.30;;;9.67;;
2191;SDS011;1102;49.718;11.902;2022-11-15T20:50:58;12.17;;;10.87;;
2191;SDS011;1102;49.718;11.902;2022-11-15T20:53:29;11.43;;;8.37;;
2191;SDS011;1102;49.718;11.902;2022-11-15T20:56:01;11.60;;;9.37;;
2191;SDS011;1102;49.718;11.902;2022-11-15T20:58:34;11.57;;;9.50;;
2191;SDS011;1102;49.718;11.902;2022-11-15T21:01:02;10.57;;;8.50;;
2191;SDS011;1102;49.718;11.902;2022-11-15T21:03:32;10.17;;;9.13;;
2191;SDS011;1102;49.718;11.902;2022-11-15T21:06:00;14.53;;;9.73;;
2191;SDS011;1102;49.718;11.902;2022-11-15T21:08:27;11.97;;;9.77;;
2191;SDS011;1102;49.718;11.902;2022-11-15T21:11:14;13.03;;;9.80;;
2191;SDS011;1102;49.718;11.902;2022-11-15T21:14:00;10.93;;;8.80;;
2191;SDS011;1102;49.718;11.902;2022-11-15T21:16:34;11.30;;;9.03;;
2191;SDS011;1102;49.718;11.902;2022-11-15T21:19:00;10.50;;;9.07;;
2191;SDS011;1102;49.718;11.902;2022-11-15T21:21:27;11.40;;;8.87;;
2191;SDS011;1102;49.718;11.902;2022-11-15T21:23:54;10.57;;;8.47;;
2191;SDS011;1102;49.718;11.902;2022-11-15T21:26:23;9.37;;;8.30;;
2191;SDS011;1102;49.718;11.902;2022-11-15T21:28:51;13.90;;;8.87;;
2191;SDS011;1102;49.718;11.902;2022-11-15T21:31:18;9.17;;;7.57;;
2191;SDS011;1102;49.718;11.902;2022-11-15T21:33:45;8.50;;;7.47;;
2191;SDS011;1102;49.718;11.902;2022-11-15T21:36:11;10.97;;;8.00;;
2191;SDS011;1102;49.718;11.902;2022-11-15T21:38:38;9.27;;;6.80;;
2191;SDS011;1102;49.718;11.902;2022-11-15T21:41:05;9.17;;;8.30;;
2191;SDS011;1102;49.718;11.902;2022-11-15T21:43:32;7.70;;;6.60;;
2191;SDS011;1102;49.718;11.902;2022-11-15T21:46:00;7.30;;;6.57;;
2191;SDS011;1102;49.718;11.902;2022-11-15T21:48:29;8.90;;;6.83;;
2191;SDS011;1102;49.718;11.902;2022-11-15T21:50:58;11.00;;;9.60;;
2191;SDS011;1102;49.718;11.902;2022-11-15T21:53:27;7.80;;;7.00;;
2191;SDS011;1102;49.718;11.902;2022-11-15T21:55:54;9.03;;;7.47;;
2191;SDS011;1102;49.718;11.902;2022-11-15T21:58:21;11.03;;;8.27;;
2191;SDS011;1102;49.718;11.902;2022-11-15T22:00:48;9.27;;;8.20;;
2191;SDS011;1102;49.718;11.902;2022-11-15T22:03:34;7.97;;;7.17;;
2191;SDS011;1102;49.718;11.902;2022-11-15T22:06:01;9.50;;;7.53;;
2191;SDS011;1102;49.718;11.902;2022-11-15T22:08:28;10.50;;;7.90;;
2191;SDS011;1102;49.718;11.902;2022-11-15T22:10:56;8.13;;;7.33;;
2191;SDS011;1102;49.718;11.902;2022-11-15T22:13:24;7.40;;;6.70;;
2191;SDS011;1102;49.718;11.902;2022-11-15T22:15:52;7.37;;;6.30;;
2191;SDS011;1102;49.718;11.902;2022-11-15T22:18:20;9.03;;;8.13;;
2191;SDS011;1102;49.718;11.902;2022-11-15T22:20:59;7.97;;;7.00;;
2191;SDS011;1102;49.718;11.902;2022-11-15T22:23:29;10.10;;;8.33;;
2191;SDS011;1102;49.718;11.902;2022-11-15T22:25:57;13.10;;;8.30;;